Time,TemperatureF,DewpointF,PressureIn,WindDirection,WindDirectionDegrees,WindSpeedMPH,WindSpeedGustMPH,Humidity,HourlyPrecipIn,Conditions,Clouds,dailyrainin,SoftwareType,DateUTC
2013-01-15 00:03:00,32.4,28.7,30.27,West,276,0.0,0.0,86,0.00,RA,FEW,0.00,WeatherDisplay:10.37,2013-01-15 05:03:00,
2013-01-15 00:04:00,32.4,28.4,30.27,West,276,1.2,0.0,85,0.00,RA,FEW,0.00,WeatherDisplay:10.37,2013-01-15 05:04:00,
2013-01-15 00:09:00,32.3,27.7,30.26,West,276,0.0,0.0,83,0.00,CLR,FEW,0.00,WeatherDisplay:10.37,2013-01-15 05:09:00,
2013-01-15 00:14:00,32.3,28.3,30.27,West,276,0.0,0.0,85,0.00,CLR,FEW,0.00,WeatherDisplay:10.37,2013-01-15 05:14:00,
2013-01-15 00:19:00,32.3,27.7,30.27,West,276,1.2,0.0,83,0.00,CLR,FEW,0.00,WeatherDisplay:10.37,2013-01-15 05:19:00,
2013-01-15 00:23:00,32.3,27.4,30.27,West,276,0.0,0.0,82,0.00,CLR,FEW,0.00,WeatherDisplay:10.37,2013-01-15 05:23:00,
2013-01-15 00:28:00,32.4,27.2,30.27,NW,312,2.3,2.3,81,0.00,CLR,FEW,0.00,WeatherDisplay:10.37,2013-01-15 05:28:00,
2013-01-15 00:33:00,32.4,28.1,30.27,NW,312,0.0,0.0,84,0.00,CLR,FEW,0.00,WeatherDisplay:10.37,2013-01-15 05:33:00,
2013-01-15 00:38:00,32.4,27.8,30.27,NW,312,0.0,0.0,83,0.00,CLR,FEW,0.00,WeatherDisplay:10.37,2013-01-15 05:38:00,
2013-01-15 00:43:00,32.4,27.2,30.28,NW,311,1.2,1.2,81,0.00,CLR,FEW,0.00,WeatherDisplay:10.37,2013-01-15 05:43:00,
2013-01-15 00:48:00,32.5,27.0,30.28,WNW,302,2.3,2.3,80,0.00,CLR,FEW,0.00,WeatherDisplay:10.37,2013-01-15 05:48:00,
2013-01-15 00:53:00,32.5,26.4,30.27,NW,322,2.3,2.3,78,0.00,CLR,FEW,0.00,WeatherDisplay:10.37,2013-01-15 05:53:00,
2013-01-15 00:58:00,32.6,26.2,30.27,NW,320,3.5,3.5,77,0.00,CLR,FEW,0.00,WeatherDisplay:10.37,2013-01-15 05:58:00,
2013-01-15 01:03:00,32.6,26.2,30.28,NW,315,2.3,2.3,77,0.00,CLR,FEW,0.00,WeatherDisplay:10.37,2013-01-15 06:03:00,
2013-01-15 01:08:00,32.5,26.4,30.28,NW,319,2.3,2.3,78,0.00,CLR,FEW,0.00,WeatherDisplay:10.37,2013-01-15 06:08:00,
2013-01-15 01:13:00,32.5,26.1,30.28,WNW,290,3.5,3.5,77,0.00,CLR,FEW,0.00,WeatherDisplay:10.37,2013-01-15 06:13:00,
2013-01-15 01:18:00,32.5,26.7,30.28,WNW,292,1.2,1.2,79,0.00,CLR,FEW,0.00,WeatherDisplay:10.37,2013-01-15 06:18:00,
2013-01-15 01:23:00,32.4,26.0,30.27,NW,312,3.5,3.5,77,0.00,CLR,FEW,0.00,WeatherDisplay:10.37,2013-01-15 06:23:00,
2013-01-15 01:29:00,32.4,26.3,30.29,NW,312,2.3,2.3,78,0.00,CLR,FEW,0.00,WeatherDisplay:10.37,2013-01-15 06:29:00,
2013-01-15 01:34:00,32.3,26.2,30.28,NW,312,1.2,1.2,78,0.00,CLR,FEW,0.00,WeatherDisplay:10.37,2013-01-15 06:34:00,
2013-01-15 01:39:00,32.2,25.8,30.27,West,276,1.2,0.0,77,0.00,CLR,FEW,0.00,WeatherDisplay:10.37,2013-01-15 06:39:00,
2013-01-15 01:44:00,32.2,25.8,30.27,West,281,0.0,0.0,77,0.00,CLR,FEW,0.00,WeatherDisplay:10.37,2013-01-15 06:44:00,
2013-01-15 01:49:00,32.1,25.7,30.27,NNE,19,1.2,0.0,77,0.00,CLR,FEW,0.00,WeatherDisplay:10.37,2013-01-15 06:49:00,
2013-01-15 01:54:00,32.1,25.7,30.26,NNE,19,1.2,1.2,77,0.00,CLR,FEW,0.00,WeatherDisplay:10.37,2013-01-15 06:54:00,
2013-01-15 01:59:00,32.0,27.4,30.25,NNE,19,0.0,0.1,83,0.00,CLR,FEW,0.00,WeatherDisplay:10.37,2013-01-15 06:59:00,
2013-01-15 02:04:00,32.0,25.6,30.25,NNE,19,0.0,0.0,77,0.00,CLR,FEW,0.00,WeatherDisplay:10.37,2013-01-15 07:04:00,
2013-01-15 02:09:00,31.9,26.4,30.25,NNE,19,0.0,0.0,80,0.00,CLR,FEW,0.00,WeatherDisplay:10.37,2013-01-15 07:09:00,
2013-01-15 02:14:00,31.8,26.0,30.25,NNE,19,0.0,0.0,79,0.00,CLR,FEW,0.00,WeatherDisplay:10.37,2013-01-15 07:14:00,
2013-01-15 02:19:00,31.7,25.9,30.25,NNE,19,0.0,0.0,79,0.00,CLR,FEW,0.00,WeatherDisplay:10.37,2013-01-15 07:19:00,
2013-01-15 02:24:00,31.6,26.4,30.25,NNE,19,0.0,0.0,81,0.00,CLR,FEW,0.00,WeatherDisplay:10.37,2013-01-15 07:24:00,
2013-01-15 02:29:00,31.5,26.6,30.25,NNE,19,0.0,0.0,82,0.00,CLR,FEW,0.00,WeatherDisplay:10.37,2013-01-15 07:29:00,
2013-01-15 02:34:00,31.4,26.5,30.25,NNE,19,0.0,0.0,82,0.00,CLR,FEW,0.00,WeatherDisplay:10.37,2013-01-15 07:34:00,
2013-01-15 02:39:00,31.2,26.3,30.26,NNE,19,0.0,0.0,82,0.00,CLR,FEW,0.00,WeatherDisplay:10.37,2013-01-15 07:39:00,
2013-01-15 02:44:00,31.2,25.7,30.26,NW,313,1.2,1.2,80,0.00,CLR,FEW,0.00,WeatherDisplay:10.37,2013-01-15 07:44:00,
2013-01-15 02:49:00,31.3,26.1,30.26,NW,313,1.2,1.2,81,0.00,CLR,FEW,0.00,WeatherDisplay:10.37,2013-01-15 07:49:00,
2013-01-15 02:54:00,31.4,25.9,30.24,NW,313,0.0,0.0,80,0.00,CLR,FEW,0.00,WeatherDisplay:10.37,2013-01-15 07:54:00,
2013-01-15 02:59:00,31.4,25.9,30.23,WNW,298,2.3,2.3,80,0.00,CLR,FEW,0.00,WeatherDisplay:10.37,2013-01-15 07:59:00,
2013-01-15 03:04:00,31.4,25.6,30.23,WNW,298,0.0,0.0,79,0.00,CLR,FEW,0.00,WeatherDisplay:10.37,2013-01-15 08:04:00,
2013-01-15 03:09:00,31.4,26.5,30.23,WNW,298,0.0,0.0,82,0.00,CLR,FEW,0.00,WeatherDisplay:10.37,2013-01-15 08:09:00,
2013-01-15 03:14:00,31.3,25.8,30.25,WNW,298,1.2,1.2,80,0.00,CLR,FEW,0.00,WeatherDisplay:10.37,2013-01-15 08:14:00,
2013-01-15 03:19:00,31.2,26.0,30.24,WNW,298,0.0,0.0,81,0.00,CLR,FEW,0.00,WeatherDisplay:10.37,2013-01-15 08:19:00,
2013-01-15 03:24:00,31.2,26.6,30.25,WNW,298,1.2,1.2,83,0.00,CLR,FEW,0.00,WeatherDisplay:10.37,2013-01-15 08:24:00,
2013-01-15 03:29:00,31.1,26.5,30.24,WNW,298,0.0,0.0,83,0.00,CLR,FEW,0.00,WeatherDisplay:10.37,2013-01-15 08:29:00,
2013-01-15 03:34:00,31.0,26.4,30.24,WNW,298,0.0,0.0,83,0.00,CLR,FEW,0.00,WeatherDisplay:10.37,2013-01-15 08:34:00,
2013-01-15 03:39:00,30.9,26.3,30.23,WNW,298,0.0,0.0,83,0.00,CLR,FEW,0.00,WeatherDisplay:10.37,2013-01-15 08:39:00,
2013-01-15 03:44:00,30.8,26.5,30.24,WNW,298,0.0,0.0,84,0.00,CLR,FEW,0.00,WeatherDisplay:10.37,2013-01-15 08:44:00,
2013-01-15 03:49:00,30.7,26.1,30.24,WNW,298,0.0,0.0,83,0.00,CLR,FEW,0.00,WeatherDisplay:10.37,2013-01-15 08:49:00,
2013-01-15 03:54:00,30.6,26.3,30.24,WNW,298,0.0,0.0,84,0.00,CLR,FEW,0.00,WeatherDisplay:10.37,2013-01-15 08:54:00,
2013-01-15 03:59:00,30.5,26.0,30.24,WNW,298,0.0,0.0,83,0.00,CLR,FEW,0.00,WeatherDisplay:10.37,2013-01-15 08:59:00,
2013-01-15 04:04:00,30.4,25.9,30.23,WNW,298,0.0,0.0,83,0.00,CLR,FEW,0.00,WeatherDisplay:10.37,2013-01-15 09:04:00,
2013-01-15 04:09:00,30.3,25.8,30.24,WNW,298,0.0,0.1,83,0.00,CLR,FEW,0.00,WeatherDisplay:10.37,2013-01-15 09:09:00,
2013-01-15 04:14:00,30.2,25.9,30.24,WNW,298,0.0,0.0,84,0.00,CLR,FEW,0.00,WeatherDisplay:10.37,2013-01-15 09:14:00,
2013-01-15 04:19:00,30.0,26.0,30.24,WNW,298,0.0,0.0,85,0.00,CLR,FEW,0.00,WeatherDisplay:10.37,2013-01-15 09:19:00,
2013-01-15 04:24:00,29.9,26.2,30.24,WNW,298,1.2,0.0,86,0.00,CLR,FEW,0.00,WeatherDisplay:10.37,2013-01-15 09:24:00,
2013-01-15 04:29:00,29.7,26.0,30.23,WNW,298,0.0,0.0,86,0.00,CLR,FEW,0.00,WeatherDisplay:10.37,2013-01-15 09:29:00,
2013-01-15 04:34:00,29.6,26.2,30.23,WNW,298,0.0,0.0,87,0.00,CLR,FEW,0.00,WeatherDisplay:10.37,2013-01-15 09:34:00,
2013-01-15 04:39:00,29.4,26.0,30.24,WNW,298,0.0,0.0,87,0.00,CLR,FEW,0.00,WeatherDisplay:10.37,2013-01-15 09:39:00,
2013-01-15 04:44:00,29.3,26.2,30.24,WNW,298,0.0,0.0,88,0.00,CLR,FEW,0.00,WeatherDisplay:10.37,2013-01-15 09:44:00,
2013-01-15 04:49:00,29.2,25.8,30.24,WNW,298,0.0,0.0,87,0.00,CLR,FEW,0.00,WeatherDisplay:10.37,2013-01-15 09:49:00,
2013-01-15 04:54:00,28.9,25.5,30.24,WNW,298,0.0,0.0,87,0.00,CLR,FEW,0.00,WeatherDisplay:10.37,2013-01-15 09:54:00,
2013-01-15 04:59:00,28.6,25.2,30.24,WNW,298,1.0,0.0,87,0.00,CLR,FEW,0.00,WeatherDisplay:10.37,2013-01-15 09:59:00,
2013-01-15 05:04:00,28.6,25.2,30.24,WNW,298,0.0,0.0,87,0.00,CLR,FEW,0.00,WeatherDisplay:10.37,2013-01-15 10:04:00,
2013-01-15 05:09:00,28.6,24.9,30.23,WNW,298,0.0,0.0,86,0.00,CLR,FEW,0.00,WeatherDisplay:10.37,2013-01-15 10:09:00,
2013-01-15 05:14:00,28.6,24.7,30.23,WNW,298,0.0,0.0,85,0.00,CLR,FEW,0.00,WeatherDisplay:10.37,2013-01-15 10:14:00,
2013-01-15 05:19:00,28.7,24.8,30.23,WNW,298,0.0,0.0,85,0.00,CLR,FEW,0.00,WeatherDisplay:10.37,2013-01-15 10:19:00,
2013-01-15 05:24:00,28.6,24.7,30.23,WNW,298,0.0,0.0,85,0.00,CLR,FEW,0.00,WeatherDisplay:10.37,2013-01-15 10:24:00,
2013-01-15 05:29:00,28.5,24.6,30.23,WNW,298,0.0,0.0,85,0.00,CLR,FEW,0.00,WeatherDisplay:10.37,2013-01-15 10:29:00,
2013-01-15 05:34:00,28.6,24.7,30.22,WNW,298,0.0,0.0,85,0.00,CLR,FEW,0.00,WeatherDisplay:10.37,2013-01-15 10:34:00,
2013-01-15 05:39:00,28.6,24.4,30.23,WNW,298,0.0,0.0,84,0.00,CLR,FEW,0.00,WeatherDisplay:10.37,2013-01-15 10:39:00,
2013-01-15 05:44:00,28.6,24.7,30.24,WNW,298,1.2,1.2,85,0.00,CLR,FEW,0.00,WeatherDisplay:10.37,2013-01-15 10:44:00,
2013-01-15 05:49:00,28.1,24.7,30.25,WNW,298,0.0,0.0,87,0.00,CLR,FEW,0.00,WeatherDisplay:10.37,2013-01-15 10:49:00,
2013-01-15 05:54:00,27.7,24.9,30.26,WNW,298,1.2,1.2,89,0.00,CLR,FEW,0.00,WeatherDisplay:10.37,2013-01-15 10:54:00,
2013-01-15 05:59:00,27.5,24.4,30.26,WNW,298,1.2,1.2,88,0.00,CLR,FEW,0.00,WeatherDisplay:10.37,2013-01-15 10:59:00,
2013-01-15 06:04:00,27.6,24.2,30.26,WNW,298,0.0,0.0,87,0.00,CLR,FEW,0.00,WeatherDisplay:10.37,2013-01-15 11:04:00,
2013-01-15 06:09:00,27.8,24.2,30.27,WNW,298,0.0,0.0,86,0.00,CLR,FEW,0.00,WeatherDisplay:10.37,2013-01-15 11:09:00,
2013-01-15 06:14:00,27.8,24.7,30.27,WNW,298,0.0,0.0,88,0.00,CLR,FEW,0.00,WeatherDisplay:10.37,2013-01-15 11:14:00,
2013-01-15 06:19:00,27.7,24.9,30.27,WNW,298,0.0,0.0,89,0.00,CLR,FEW,0.00,WeatherDisplay:10.37,2013-01-15 11:19:00,
2013-01-15 06:25:00,27.5,24.4,30.27,WNW,298,0.0,0.0,88,0.00,CLR,FEW,0.00,WeatherDisplay:10.37,2013-01-15 11:25:00,
2013-01-15 06:30:00,27.4,24.0,30.27,WNW,298,0.0,0.0,87,0.00,CLR,FEW,0.00,WeatherDisplay:10.37,2013-01-15 11:30:00,
2013-01-15 06:35:00,27.3,23.9,30.27,WNW,298,0.0,0.0,87,0.00,CLR,FEW,0.00,WeatherDisplay:10.37,2013-01-15 11:35:00,
2013-01-15 06:40:00,27.3,23.9,30.27,WNW,298,0.0,0.0,87,0.00,CLR,FEW,0.00,WeatherDisplay:10.37,2013-01-15 11:40:00,
2013-01-15 06:45:00,27.3,23.7,30.27,WNW,298,2.3,2.3,86,0.00,CLR,FEW,0.00,WeatherDisplay:10.37,2013-01-15 11:45:00,
2013-01-15 06:50:00,27.6,23.7,30.28,WNW,298,1.2,1.2,85,0.00,CLR,FEW,0.00,WeatherDisplay:10.37,2013-01-15 11:50:00,
2013-01-15 06:55:00,27.8,23.6,30.28,WNW,298,0.0,0.0,84,0.00,CLR,FEW,0.00,WeatherDisplay:10.37,2013-01-15 11:55:00,
2013-01-15 07:00:00,27.8,23.6,30.28,WNW,298,0.0,0.0,84,0.00,CLR,FEW,0.00,WeatherDisplay:10.37,2013-01-15 12:00:00,
2013-01-15 07:05:00,27.9,23.7,30.28,WNW,298,0.0,0.0,84,0.00,CLR,FEW,0.00,WeatherDisplay:10.37,2013-01-15 12:05:00,
2013-01-15 07:10:00,27.9,23.4,30.29,WNW,298,1.2,1.2,83,0.00,CLR,FEW,0.00,WeatherDisplay:10.37,2013-01-15 12:10:00,
2013-01-15 07:15:00,27.9,23.4,30.29,WNW,298,1.0,0.0,83,0.00,CLR,FEW,0.00,WeatherDisplay:10.37,2013-01-15 12:15:00,
2013-01-15 07:20:00,27.8,23.6,30.30,WNW,298,0.0,0.0,84,0.00,CLR,FEW,0.00,WeatherDisplay:10.37,2013-01-15 12:20:00,
2013-01-15 07:25:00,27.7,23.8,30.30,WNW,298,0.0,0.0,85,0.00,CLR,FEW,0.00,WeatherDisplay:10.37,2013-01-15 12:25:00,
2013-01-15 07:30:00,27.5,24.1,30.30,WNW,298,0.0,0.0,87,0.00,CLR,FEW,0.00,WeatherDisplay:10.37,2013-01-15 12:30:00,
2013-01-15 07:35:00,27.3,24.2,30.30,WNW,298,0.0,0.0,88,0.00,CLR,FEW,0.00,WeatherDisplay:10.37,2013-01-15 12:35:00,
2013-01-15 07:40:00,27.1,24.0,30.31,WNW,298,0.0,0.0,88,0.00,CLR,FEW,0.00,WeatherDisplay:10.37,2013-01-15 12:40:00,
2013-01-15 07:45:00,26.8,24.0,30.31,WNW,298,0.0,0.0,89,0.00,CLR,FEW,0.00,WeatherDisplay:10.37,2013-01-15 12:45:00,
2013-01-15 07:50:00,26.6,23.5,30.31,WNW,298,0.0,0.0,88,0.00,CLR,FEW,0.00,WeatherDisplay:10.37,2013-01-15 12:50:00,
2013-01-15 07:55:00,26.5,23.7,30.31,WNW,298,0.0,0.0,89,0.00,CLR,FEW,0.00,WeatherDisplay:10.37,2013-01-15 12:55:00,
2013-01-15 08:00:00,26.5,23.4,30.31,WNW,298,0.0,0.0,88,0.00,CLR,FEW,0.00,WeatherDisplay:10.37,2013-01-15 13:00:00,
2013-01-15 08:05:00,26.6,23.8,30.31,WNW,298,0.0,0.0,89,0.00,CLR,FEW,0.00,WeatherDisplay:10.37,2013-01-15 13:05:00,
2013-01-15 08:10:00,26.7,23.4,30.31,WNW,298,1.2,0.0,87,0.00,CLR,FEW,0.00,WeatherDisplay:10.37,2013-01-15 13:10:00,
2013-01-15 08:15:00,27.1,23.5,30.31,WNW,298,0.0,0.0,86,0.00,CLR,FEW,0.00,WeatherDisplay:10.37,2013-01-15 13:15:00,
2013-01-15 08:20:00,27.4,23.8,30.30,WNW,298,0.0,0.0,86,0.00,CLR,FEW,0.00,WeatherDisplay:10.37,2013-01-15 13:20:00,
2013-01-15 08:25:00,27.8,24.2,30.31,WNW,298,1.2,0.0,86,0.00,CLR,FEW,0.00,WeatherDisplay:10.37,2013-01-15 13:25:00,
2013-01-15 08:30:00,28.1,24.2,30.31,WNW,298,0.0,0.0,85,0.00,CLR,FEW,0.00,WeatherDisplay:10.37,2013-01-15 13:30:00,
2013-01-15 08:35:00,28.3,24.1,30.31,WNW,298,0.0,0.0,84,0.00,CLR,FEW,0.00,WeatherDisplay:10.37,2013-01-15 13:35:00,
2013-01-15 08:40:00,28.6,24.1,30.31,NW,325,0.0,0.0,83,0.00,CLR,FEW,0.00,WeatherDisplay:10.37,2013-01-15 13:40:00,
2013-01-15 08:45:00,28.9,24.1,30.31,NW,325,2.3,2.3,82,0.00,CLR,FEW,0.00,WeatherDisplay:10.37,2013-01-15 13:45:00,
2013-01-15 08:50:00,29.3,24.2,30.31,NW,325,1.2,1.2,81,0.00,CLR,FEW,0.00,WeatherDisplay:10.37,2013-01-15 13:50:00,
2013-01-15 08:55:00,29.6,24.2,30.31,NW,321,4.0,4.0,80,0.00,CLR,FEW,0.00,WeatherDisplay:10.37,2013-01-15 13:55:00,
2013-01-15 09:00:00,29.8,24.1,30.31,NW,304,3.5,3.5,79,0.00,CLR,FEW,0.00,WeatherDisplay:10.37,2013-01-15 14:00:00,
2013-01-15 09:05:00,30.0,24.0,30.32,NW,304,3.5,3.5,78,0.00,CLR,FEW,0.00,WeatherDisplay:10.37,2013-01-15 14:05:00,
2013-01-15 09:10:00,30.2,24.2,30.32,NNW,347,1.2,1.2,78,0.00,CLR,FEW,0.00,WeatherDisplay:10.37,2013-01-15 14:10:00,
2013-01-15 09:15:00,30.3,24.3,30.32,NNW,347,1.2,1.2,78,0.00,CLR,FEW,0.00,WeatherDisplay:10.37,2013-01-15 14:15:00,
2013-01-15 09:20:00,30.5,24.5,30.32,WNW,299,1.2,1.2,78,0.00,CLR,FEW,0.00,WeatherDisplay:10.37,2013-01-15 14:20:00,
2013-01-15 09:25:00,30.7,24.3,30.32,WNW,299,1.0,1.0,77,0.00,CLR,FEW,0.00,WeatherDisplay:10.37,2013-01-15 14:25:00,
2013-01-15 09:30:00,30.8,24.4,30.33,WNW,299,2.3,2.3,77,0.00,CLR,FEW,0.00,WeatherDisplay:10.37,2013-01-15 14:30:00,
2013-01-15 09:35:00,31.1,24.4,30.33,WNW,299,2.3,2.3,76,0.00,CLR,FEW,0.00,WeatherDisplay:10.37,2013-01-15 14:35:00,
2013-01-15 09:40:00,31.2,24.5,30.33,WNW,299,1.2,0.0,76,0.00,CLR,FEW,0.00,WeatherDisplay:10.37,2013-01-15 14:40:00,
2013-01-15 09:45:00,31.2,24.8,30.33,WNW,300,1.2,0.0,77,0.00,CLR,FEW,0.00,WeatherDisplay:10.37,2013-01-15 14:45:00,
2013-01-15 09:50:00,31.4,25.3,30.34,WNW,300,1.2,0.0,78,0.00,CLR,FEW,0.00,WeatherDisplay:10.37,2013-01-15 14:50:00,
2013-01-15 09:55:00,31.5,24.8,30.33,WNW,294,1.2,1.2,76,0.00,CLR,FEW,0.00,WeatherDisplay:10.37,2013-01-15 14:55:00,
2013-01-15 10:00:00,31.6,24.9,30.33,WNW,294,1.2,1.2,76,0.00,CLR,FEW,0.00,WeatherDisplay:10.37,2013-01-15 15:00:00,
2013-01-15 10:05:00,31.7,24.4,30.34,NW,308,3.5,3.5,74,0.00,CLR,FEW,0.00,WeatherDisplay:10.37,2013-01-15 15:05:00,
2013-01-15 10:10:00,32.1,24.7,30.34,NNW,333,3.5,3.5,74,0.00,CLR,FEW,0.00,WeatherDisplay:10.37,2013-01-15 15:10:00,
2013-01-15 10:15:00,32.3,24.6,30.34,ENE,60,3.5,3.5,73,0.00,CLR,FEW,0.00,WeatherDisplay:10.37,2013-01-15 15:15:00,
2013-01-15 10:20:00,32.3,24.3,30.33,NW,309,4.0,4.0,72,0.00,CLR,FEW,0.00,WeatherDisplay:10.37,2013-01-15 15:20:00,
2013-01-15 10:25:00,32.3,24.3,30.33,NW,306,1.2,1.2,72,0.00,CLR,FEW,0.00,WeatherDisplay:10.37,2013-01-15 15:25:00,
2013-01-15 10:30:00,32.5,24.5,30.33,NW,326,3.5,3.5,72,0.00,CLR,FEW,0.00,WeatherDisplay:10.37,2013-01-15 15:30:00,
2013-01-15 10:35:00,32.7,24.3,30.32,North,5,1.2,0.0,71,0.00,CLR,FEW,0.00,WeatherDisplay:10.37,2013-01-15 15:35:00,
2013-01-15 10:40:00,32.8,24.4,30.32,NNW,331,3.5,3.5,71,0.00,CLR,FEW,0.00,WeatherDisplay:10.37,2013-01-15 15:40:00,
2013-01-15 10:45:00,33.0,24.6,30.31,WNW,301,2.3,2.3,71,0.00,CLR,FEW,0.00,WeatherDisplay:10.37,2013-01-15 15:45:00,
2013-01-15 10:50:00,33.0,24.6,30.31,NW,314,3.5,3.5,71,0.00,CLR,FEW,0.00,WeatherDisplay:10.37,2013-01-15 15:50:00,
2013-01-15 10:55:00,33.0,23.9,30.31,NW,312,2.3,2.3,69,0.00,CLR,FEW,0.00,WeatherDisplay:10.37,2013-01-15 15:55:00,
2013-01-15 11:00:00,33.2,24.1,30.31,WNW,297,3.5,3.5,69,0.00,CLR,FEW,0.00,WeatherDisplay:10.37,2013-01-15 16:00:00,
2013-01-15 11:05:00,33.4,24.0,30.30,NW,310,1.2,1.2,68,0.00,CLR,FEW,0.00,WeatherDisplay:10.37,2013-01-15 16:05:00,
2013-01-15 11:10:00,33.5,24.8,30.30,WNW,288,1.2,1.2,70,0.00,CLR,FEW,0.00,WeatherDisplay:10.37,2013-01-15 16:10:00,
2013-01-15 11:15:00,33.4,24.3,30.30,WNW,288,3.5,3.5,69,0.00,CLR,FEW,0.00,WeatherDisplay:10.37,2013-01-15 16:15:00,
2013-01-15 11:20:00,33.3,24.2,30.30,NW,312,1.2,0.0,69,0.00,CLR,FEW,0.00,WeatherDisplay:10.37,2013-01-15 16:20:00,
2013-01-15 11:25:00,33.4,24.0,30.30,NW,324,4.6,4.6,68,0.00,CLR,FEW,0.00,WeatherDisplay:10.37,2013-01-15 16:25:00,
2013-01-15 11:30:00,33.5,24.1,30.30,WNW,292,2.3,2.3,68,0.00,CLR,FEW,0.00,WeatherDisplay:10.37,2013-01-15 16:30:00,
2013-01-15 11:35:00,33.4,24.0,30.30,ENE,57,4.6,4.6,68,0.00,CLR,FEW,0.00,WeatherDisplay:10.37,2013-01-15 16:35:00,
2013-01-15 11:40:00,33.5,24.1,30.29,WNW,290,3.5,3.5,68,0.00,CLR,FEW,0.00,WeatherDisplay:10.37,2013-01-15 16:40:00,
2013-01-15 11:45:00,33.6,23.8,30.29,NNW,336,2.3,2.3,67,0.00,CLR,FEW,0.00,WeatherDisplay:10.37,2013-01-15 16:45:00,
2013-01-15 11:50:00,33.6,24.5,30.29,North,360,2.3,2.3,69,0.00,CLR,FEW,0.00,WeatherDisplay:10.37,2013-01-15 16:50:00,
2013-01-15 11:55:00,33.7,23.9,30.29,NW,323,2.3,2.3,67,0.00,CLR,FEW,0.00,WeatherDisplay:10.37,2013-01-15 16:55:00,
2013-01-15 12:00:00,33.7,24.3,30.28,NW,323,1.0,1.0,68,0.00,CLR,FEW,0.00,WeatherDisplay:10.37,2013-01-15 17:00:00,
2013-01-15 12:05:00,33.8,24.7,30.28,NW,306,1.2,1.2,69,0.00,CLR,FEW,0.00,WeatherDisplay:10.37,2013-01-15 17:05:00,
2013-01-15 12:10:00,33.8,24.0,30.28,NW,306,1.2,1.2,67,0.00,CLR,FEW,0.00,WeatherDisplay:10.37,2013-01-15 17:10:00,
2013-01-15 12:15:00,33.9,24.4,30.28,NW,306,1.2,0.0,68,0.00,CLR,FEW,0.00,WeatherDisplay:10.37,2013-01-15 17:15:00,
2013-01-15 12:20:00,34.0,24.5,30.28,NW,306,1.2,0.0,68,0.00,CLR,FEW,0.00,WeatherDisplay:10.37,2013-01-15 17:20:00,
2013-01-15 12:25:00,34.2,24.4,30.28,NE,51,2.3,2.3,67,0.00,CLR,FEW,0.00,WeatherDisplay:10.37,2013-01-15 17:25:00,
2013-01-15 12:30:00,34.2,24.0,30.28,NE,51,0.0,0.0,66,0.00,CLR,FEW,0.00,WeatherDisplay:10.37,2013-01-15 17:30:00,
2013-01-15 12:35:00,34.3,24.5,30.28,NE,51,2.0,2.0,67,0.00,CLR,FEW,0.00,WeatherDisplay:10.37,2013-01-15 17:35:00,
2013-01-15 12:40:00,34.2,24.7,30.28,NW,323,1.2,1.2,68,0.00,CLR,FEW,0.00,WeatherDisplay:10.37,2013-01-15 17:40:00,
2013-01-15 12:45:00,34.1,24.3,30.28,NE,41,2.3,2.3,67,0.00,CLR,FEW,0.00,WeatherDisplay:10.37,2013-01-15 17:45:00,
2013-01-15 12:50:00,34.1,25.0,30.28,North,5,2.3,2.3,69,0.00,CLR,FEW,0.00,WeatherDisplay:10.37,2013-01-15 17:50:00,
2013-01-15 12:55:00,34.1,25.0,30.28,NW,306,2.3,2.3,69,0.00,CLR,FEW,0.00,WeatherDisplay:10.37,2013-01-15 17:55:00,
2013-01-15 13:00:00,34.1,24.6,30.28,NNE,17,1.2,1.2,68,0.00,CLR,FEW,0.00,WeatherDisplay:10.37,2013-01-15 18:00:00,
2013-01-15 13:05:00,34.2,25.4,30.28,North,11,2.3,2.3,70,0.00,CLR,FEW,0.00,WeatherDisplay:10.37,2013-01-15 18:05:00,
2013-01-15 13:10:00,34.1,24.6,30.28,WNW,301,3.5,3.5,68,0.00,CLR,FEW,0.00,WeatherDisplay:10.37,2013-01-15 18:10:00,
2013-01-15 13:15:00,34.0,24.5,30.28,NW,312,2.0,2.0,68,0.00,CLR,FEW,0.00,WeatherDisplay:10.37,2013-01-15 18:15:00,
2013-01-15 13:20:00,34.0,24.5,30.28,NW,312,0.0,0.1,68,0.00,CLR,FEW,0.00,WeatherDisplay:10.37,2013-01-15 18:20:00,
2013-01-15 13:25:00,34.0,24.9,30.28,North,10,2.0,2.0,69,0.00,CLR,FEW,0.00,WeatherDisplay:10.37,2013-01-15 18:25:00,
2013-01-15 13:30:00,34.0,24.5,30.27,NW,320,1.2,1.4,68,0.00,CLR,FEW,0.00,WeatherDisplay:10.37,2013-01-15 18:30:00,
2013-01-15 13:35:00,34.0,24.2,30.27,NE,35,1.2,0.0,67,0.00,CLR,FEW,0.00,WeatherDisplay:10.37,2013-01-15 18:35:00,
2013-01-15 13:40:00,34.1,24.6,30.27,NE,35,1.2,1.2,68,0.00,CLR,FEW,0.00,WeatherDisplay:10.37,2013-01-15 18:40:00,
2013-01-15 13:45:00,34.1,24.3,30.27,NE,35,1.2,0.0,67,0.00,CLR,FEW,0.00,WeatherDisplay:10.37,2013-01-15 18:45:00,
2013-01-15 13:50:00,34.2,24.4,30.27,NE,35,1.2,0.0,67,0.00,CLR,FEW,0.00,WeatherDisplay:10.37,2013-01-15 18:50:00,
2013-01-15 13:55:00,34.2,24.4,30.28,NE,35,1.0,1.0,67,0.00,CLR,FEW,0.00,WeatherDisplay:10.37,2013-01-15 18:55:00,
2013-01-15 14:00:00,34.2,24.0,30.28,North,355,1.0,1.0,66,0.00,CLR,FEW,0.00,WeatherDisplay:10.37,2013-01-15 19:00:00,
2013-01-15 14:05:00,34.3,24.8,30.27,North,355,0.0,0.0,68,0.00,CLR,FEW,0.00,WeatherDisplay:10.37,2013-01-15 19:05:00,
2013-01-15 14:10:00,34.4,24.2,30.27,North,9,3.5,3.5,66,0.00,CLR,FEW,0.00,WeatherDisplay:10.37,2013-01-15 19:10:00,
2013-01-15 14:15:00,34.3,24.5,30.28,North,9,1.2,0.0,67,0.00,CLR,FEW,0.00,WeatherDisplay:10.37,2013-01-15 19:15:00,
2013-01-15 14:20:00,34.2,24.0,30.28,North,5,2.3,2.3,66,0.00,CLR,FEW,0.00,WeatherDisplay:10.37,2013-01-15 19:20:00,
2013-01-15 14:25:00,34.3,24.8,30.28,North,5,1.2,1.2,68,0.00,CLR,FEW,0.00,WeatherDisplay:10.37,2013-01-15 19:25:00,
2013-01-15 14:30:00,34.2,24.4,30.28,NNW,331,1.2,0.0,67,0.00,CLR,FEW,0.00,WeatherDisplay:10.37,2013-01-15 19:30:00,
2013-01-15 14:35:00,34.2,24.4,30.27,NW,314,2.3,2.3,67,0.00,CLR,FEW,0.00,WeatherDisplay:10.37,2013-01-15 19:35:00,
2013-01-15 14:40:00,34.2,24.7,30.28,NW,321,2.3,2.3,68,0.00,CLR,FEW,0.00,WeatherDisplay:10.37,2013-01-15 19:40:00,
2013-01-15 14:45:00,34.2,24.0,30.27,North,9,1.2,0.0,66,0.00,CLR,FEW,0.00,WeatherDisplay:10.37,2013-01-15 19:45:00,
2013-01-15 14:50:00,34.3,24.5,30.27,North,9,0.0,0.0,67,0.00,CLR,FEW,0.00,WeatherDisplay:10.37,2013-01-15 19:50:00,
2013-01-15 14:55:00,34.3,24.1,30.27,North,349,0.0,0.0,66,0.00,CLR,FEW,0.00,WeatherDisplay:10.37,2013-01-15 19:55:00,
2013-01-15 15:00:00,34.3,24.1,30.26,North,349,0.0,0.0,66,0.00,CLR,FEW,0.00,WeatherDisplay:10.37,2013-01-15 20:00:00,
2013-01-15 15:05:00,34.3,25.2,30.26,North,349,0.0,0.0,69,0.00,CLR,FEW,0.00,WeatherDisplay:10.37,2013-01-15 20:05:00,
2013-01-15 15:10:00,34.4,25.3,30.25,North,349,2.3,2.3,69,0.00,CLR,FEW,0.00,WeatherDisplay:10.37,2013-01-15 20:10:00,
2013-01-15 15:15:00,34.3,24.5,30.25,North,350,1.2,0.0,67,0.00,CLR,FEW,0.00,WeatherDisplay:10.37,2013-01-15 20:15:00,
2013-01-15 15:20:00,34.2,24.7,30.25,North,350,0.0,0.0,68,0.00,CLR,FEW,0.00,WeatherDisplay:10.37,2013-01-15 20:20:00,
2013-01-15 15:25:00,34.1,23.9,30.26,North,350,0.0,0.0,66,0.00,CLR,FEW,0.00,WeatherDisplay:10.37,2013-01-15 20:25:00,
2013-01-15 15:30:00,34.1,25.0,30.27,North,349,0.0,0.0,69,0.00,CLR,FEW,0.00,WeatherDisplay:10.37,2013-01-15 20:30:00,
2013-01-15 15:35:00,33.9,25.1,30.25,North,349,0.0,0.0,70,0.00,CLR,FEW,0.00,WeatherDisplay:10.37,2013-01-15 20:35:00,
2013-01-15 15:40:00,33.8,26.1,30.25,North,349,0.0,0.0,73,0.00,CLR,FEW,0.00,WeatherDisplay:10.37,2013-01-15 20:40:00,
2013-01-15 15:45:00,33.5,26.4,30.26,North,349,0.0,0.0,75,0.00,CLR,FEW,0.00,WeatherDisplay:10.37,2013-01-15 20:45:00,
2013-01-15 15:50:00,33.4,27.0,30.26,North,349,0.0,0.0,77,0.00,CLR,FEW,0.00,WeatherDisplay:10.37,2013-01-15 20:50:00,
2013-01-15 15:54:00,33.2,27.1,30.27,North,349,0.0,0.0,78,0.00,CLR,FEW,0.00,WeatherDisplay:10.37,2013-01-15 20:54:00,
2013-01-15 15:59:00,33.0,25.0,30.27,North,349,0.0,0.0,72,0.00,CLR,FEW,0.00,WeatherDisplay:10.37,2013-01-15 20:59:00,
2013-01-15 16:04:00,32.9,25.5,30.27,North,349,0.0,0.0,74,0.00,CLR,FEW,0.00,WeatherDisplay:10.37,2013-01-15 21:04:00,
2013-01-15 16:09:00,32.8,25.7,30.26,North,349,0.0,0.0,75,0.00,CLR,FEW,0.00,WeatherDisplay:10.37,2013-01-15 21:09:00,
2013-01-15 16:14:00,32.7,25.6,30.27,North,349,0.0,0.0,75,0.00,CLR,FEW,0.00,WeatherDisplay:10.37,2013-01-15 21:14:00,
2013-01-15 16:19:00,32.5,26.1,30.28,North,349,0.0,0.0,77,0.00,CLR,FEW,0.00,WeatherDisplay:10.37,2013-01-15 21:19:00,
2013-01-15 16:24:00,32.3,25.9,30.28,North,349,0.0,0.0,77,0.00,CLR,FEW,0.00,WeatherDisplay:10.37,2013-01-15 21:24:00,
2013-01-15 16:29:00,32.1,26.0,30.28,North,350,0.0,0.0,78,0.00,CLR,FEW,0.00,WeatherDisplay:10.37,2013-01-15 21:29:00,
2013-01-15 16:34:00,31.9,25.5,30.28,North,349,0.0,0.0,77,0.00,CLR,FEW,0.00,WeatherDisplay:10.37,2013-01-15 21:34:00,
2013-01-15 16:39:00,31.7,25.3,30.27,North,349,0.0,0.0,77,0.00,CLR,FEW,0.00,WeatherDisplay:10.37,2013-01-15 21:39:00,
2013-01-15 16:44:00,31.6,25.5,30.28,North,350,0.0,0.0,78,0.00,CLR,FEW,0.00,WeatherDisplay:10.37,2013-01-15 21:44:00,
2013-01-15 16:49:00,31.5,25.4,30.28,North,350,0.0,0.0,78,0.00,CLR,FEW,0.00,WeatherDisplay:10.37,2013-01-15 21:49:00,
2013-01-15 16:54:00,31.3,25.5,30.28,North,349,0.0,0.0,79,0.00,CLR,FEW,0.00,WeatherDisplay:10.37,2013-01-15 21:54:00,
2013-01-15 16:59:00,31.2,25.4,30.28,North,349,0.0,0.0,79,0.00,CLR,FEW,0.00,WeatherDisplay:10.37,2013-01-15 21:59:00,
2013-01-15 17:04:00,31.0,24.9,30.28,North,349,0.0,0.0,78,0.00,CLR,FEW,0.00,WeatherDisplay:10.37,2013-01-15 22:04:00,
2013-01-15 17:09:00,30.8,24.7,30.28,North,349,0.0,0.0,78,0.00,CLR,FEW,0.00,WeatherDisplay:10.37,2013-01-15 22:09:00,
2013-01-15 17:14:00,30.7,25.3,30.28,North,349,0.0,0.0,80,0.00,CLR,FEW,0.00,WeatherDisplay:10.37,2013-01-15 22:14:00,
2013-01-15 17:19:00,30.6,25.2,30.28,North,349,0.0,0.0,80,0.00,CLR,FEW,0.00,WeatherDisplay:10.37,2013-01-15 22:19:00,
2013-01-15 17:24:00,30.5,25.1,30.28,North,349,0.0,0.0,80,0.00,CLR,FEW,0.00,WeatherDisplay:10.37,2013-01-15 22:24:00,
2013-01-15 17:29:00,30.4,25.3,30.28,North,349,0.0,0.0,81,0.00,CLR,FEW,0.00,WeatherDisplay:10.37,2013-01-15 22:29:00,
2013-01-15 17:34:00,30.3,25.2,30.27,North,349,0.0,0.0,81,0.00,CLR,FEW,0.00,WeatherDisplay:10.37,2013-01-15 22:34:00,
2013-01-15 17:39:00,30.3,25.2,30.27,North,349,0.0,0.0,81,0.00,CLR,FEW,0.00,WeatherDisplay:10.37,2013-01-15 22:39:00,
2013-01-15 17:44:00,30.4,24.1,30.28,North,349,1.2,1.2,77,0.00,CLR,FEW,0.00,WeatherDisplay:10.37,2013-01-15 22:44:00,
2013-01-15 17:49:00,30.7,24.0,30.28,North,349,1.0,0.0,76,0.00,CLR,FEW,0.00,WeatherDisplay:10.37,2013-01-15 22:49:00,
2013-01-15 17:54:00,30.8,24.1,30.28,North,349,0.0,0.0,76,0.00,CLR,FEW,0.00,WeatherDisplay:10.37,2013-01-15 22:54:00,
2013-01-15 17:59:00,30.7,24.0,30.29,North,349,1.2,0.0,76,0.00,CLR,FEW,0.00,WeatherDisplay:10.37,2013-01-15 22:59:00,
2013-01-15 18:04:00,30.7,23.7,30.29,NNW,340,1.2,1.2,75,0.00,CLR,FEW,0.00,WeatherDisplay:10.37,2013-01-15 23:04:00,
2013-01-15 18:09:00,30.7,24.0,30.30,NNW,340,0.0,0.0,76,0.00,CLR,FEW,0.00,WeatherDisplay:10.37,2013-01-15 23:09:00,
2013-01-15 18:14:00,30.6,23.3,30.29,NNW,327,3.5,3.5,74,0.00,CLR,FEW,0.00,WeatherDisplay:10.37,2013-01-15 23:14:00,
2013-01-15 18:19:00,30.7,23.4,30.29,NNW,327,1.2,0.0,74,0.00,CLR,FEW,0.00,WeatherDisplay:10.37,2013-01-15 23:19:00,
2013-01-15 18:24:00,30.7,23.4,30.29,NW,305,1.2,1.2,74,0.00,CLR,FEW,0.00,WeatherDisplay:10.37,2013-01-15 23:24:00,
2013-01-15 18:29:00,30.7,23.4,30.29,NW,305,1.2,0.0,74,0.00,CLR,FEW,0.00,WeatherDisplay:10.37,2013-01-15 23:29:00,
2013-01-15 18:34:00,30.5,23.5,30.29,NW,305,0.0,0.0,75,0.00,CLR,FEW,0.00,WeatherDisplay:10.37,2013-01-15 23:34:00,
2013-01-15 18:39:00,30.4,23.1,30.30,NW,305,1.2,1.2,74,0.00,CLR,FEW,0.00,WeatherDisplay:10.37,2013-01-15 23:39:00,
2013-01-15 18:44:00,30.3,23.0,30.29,NW,305,2.3,2.3,74,0.00,CLR,FEW,0.00,WeatherDisplay:10.37,2013-01-15 23:44:00,
2013-01-15 18:49:00,30.2,23.2,30.29,NW,305,0.0,0.0,75,0.00,CLR,FEW,0.00,WeatherDisplay:10.37,2013-01-15 23:49:00,
2013-01-15 18:54:00,30.1,23.8,30.29,NW,305,0.0,0.0,77,0.00,CLR,FEW,0.00,WeatherDisplay:10.37,2013-01-15 23:54:00,
2013-01-15 18:59:00,29.9,24.2,30.29,NW,305,0.0,0.0,79,0.00,CLR,FEW,0.00,WeatherDisplay:10.37,2013-01-15 23:59:00,
2013-01-15 19:04:00,29.6,23.6,30.29,NW,305,0.0,0.0,78,0.00,CLR,FEW,0.00,WeatherDisplay:10.37,2013-01-16 00:04:00,
2013-01-15 19:09:00,29.5,23.5,30.28,NW,305,0.0,0.0,78,0.00,CLR,FEW,0.00,WeatherDisplay:10.37,2013-01-16 00:09:00,
2013-01-15 19:14:00,29.3,24.2,30.29,NW,305,0.0,0.0,81,0.00,CLR,FEW,0.00,WeatherDisplay:10.37,2013-01-16 00:14:00,
2013-01-15 19:19:00,29.0,23.9,30.28,NW,305,0.0,0.0,81,0.00,CLR,FEW,0.00,WeatherDisplay:10.37,2013-01-16 00:19:00,
2013-01-15 19:24:00,28.9,23.8,30.28,NW,305,0.0,0.0,81,0.00,CLR,FEW,0.00,WeatherDisplay:10.37,2013-01-16 00:24:00,
2013-01-15 19:29:00,28.8,23.7,30.28,NW,305,0.0,0.0,81,0.00,CLR,FEW,0.00,WeatherDisplay:10.37,2013-01-16 00:29:00,
2013-01-15 19:34:00,28.7,23.6,30.28,NW,305,0.0,0.0,81,0.00,CLR,FEW,0.00,WeatherDisplay:10.37,2013-01-16 00:34:00,
2013-01-15 19:39:00,28.6,23.8,30.28,NW,305,0.0,0.0,82,0.00,CLR,FEW,0.00,WeatherDisplay:10.37,2013-01-16 00:39:00,
2013-01-15 19:44:00,28.5,23.4,30.28,NW,305,0.0,0.0,81,0.00,CLR,FEW,0.00,WeatherDisplay:10.37,2013-01-16 00:44:00,
2013-01-15 19:49:00,28.5,23.4,30.28,NW,305,0.0,0.0,81,0.00,CLR,FEW,0.00,WeatherDisplay:10.37,2013-01-16 00:49:00,
2013-01-15 19:54:00,28.4,23.3,30.28,NW,305,0.0,0.0,81,0.00,CLR,FEW,0.00,WeatherDisplay:10.37,2013-01-16 00:54:00,
2013-01-15 19:59:00,28.5,23.4,30.28,NW,305,0.0,0.0,81,0.00,CLR,FEW,0.00,WeatherDisplay:10.37,2013-01-16 00:59:00,
2013-01-15 20:04:00,28.5,23.7,30.29,NW,305,0.0,0.0,82,0.00,CLR,FEW,0.00,WeatherDisplay:10.37,2013-01-16 01:04:00,
2013-01-15 20:09:00,28.6,24.1,30.28,NW,305,0.0,0.0,83,0.00,CLR,FEW,0.00,WeatherDisplay:10.37,2013-01-16 01:09:00,
2013-01-15 20:14:00,28.7,23.6,30.28,NW,305,0.0,0.0,81,0.00,CLR,FEW,0.00,WeatherDisplay:10.37,2013-01-16 01:14:00,
2013-01-15 20:19:00,28.9,23.2,30.28,NW,305,0.0,0.0,79,0.00,CLR,FEW,0.00,WeatherDisplay:10.37,2013-01-16 01:19:00,
2013-01-15 20:24:00,29.0,23.3,30.27,NW,305,0.0,0.0,79,0.00,CLR,FEW,0.00,WeatherDisplay:10.37,2013-01-16 01:24:00,
2013-01-15 20:29:00,29.1,23.4,30.27,NW,305,0.0,0.0,79,0.00,CLR,FEW,0.00,WeatherDisplay:10.37,2013-01-16 01:29:00,
2013-01-15 20:34:00,29.2,23.5,30.27,NW,305,0.0,0.0,79,0.00,CLR,FEW,0.00,WeatherDisplay:10.37,2013-01-16 01:34:00,
2013-01-15 20:39:00,29.2,23.5,30.27,NW,305,0.0,0.0,79,0.00,CLR,FEW,0.00,WeatherDisplay:10.37,2013-01-16 01:39:00,
2013-01-15 20:44:00,29.2,23.2,30.26,NW,305,0.0,0.0,78,0.00,CLR,FEW,0.00,WeatherDisplay:10.37,2013-01-16 01:44:00,
2013-01-15 20:49:00,29.2,23.2,30.26,NW,305,0.0,0.0,78,0.00,CLR,FEW,0.00,WeatherDisplay:10.37,2013-01-16 01:49:00,
2013-01-15 20:54:00,29.2,23.2,30.27,NW,305,0.0,0.0,78,0.00,CLR,FEW,0.00,WeatherDisplay:10.37,2013-01-16 01:54:00,
2013-01-15 20:59:00,29.2,23.2,30.27,NW,305,0.0,0.0,78,0.00,CLR,FEW,0.00,WeatherDisplay:10.37,2013-01-16 01:59:00,
2013-01-15 21:04:00,29.2,23.5,30.27,NW,305,0.0,0.0,79,0.00,CLR,FEW,0.00,WeatherDisplay:10.37,2013-01-16 02:04:00,
2013-01-15 21:09:00,29.1,23.7,30.27,NW,305,1.2,0.0,80,0.00,CLR,FEW,0.00,WeatherDisplay:10.37,2013-01-16 02:09:00,
2013-01-15 21:14:00,29.1,23.7,30.27,NW,305,0.0,0.0,80,0.00,CLR,FEW,0.00,WeatherDisplay:10.37,2013-01-16 02:14:00,
2013-01-15 21:19:00,29.0,24.2,30.27,NW,305,0.0,0.0,82,0.00,CLR,FEW,0.00,WeatherDisplay:10.37,2013-01-16 02:19:00,
2013-01-15 21:24:00,28.9,24.1,30.26,NW,305,0.0,0.0,82,0.00,CLR,FEW,0.00,WeatherDisplay:10.37,2013-01-16 02:24:00,
2013-01-15 21:29:00,28.8,24.3,30.26,NW,305,0.0,0.0,83,0.00,CLR,FEW,0.00,WeatherDisplay:10.37,2013-01-16 02:29:00,
2013-01-15 21:34:00,28.7,23.9,30.26,NW,305,0.0,0.0,82,0.00,CLR,FEW,0.00,WeatherDisplay:10.37,2013-01-16 02:34:00,
2013-01-15 21:39:00,28.5,24.0,30.26,NW,305,0.0,0.0,83,0.00,CLR,FEW,0.00,WeatherDisplay:10.37,2013-01-16 02:39:00,
2013-01-15 21:44:00,28.4,23.9,30.25,NW,305,0.0,0.0,83,0.00,CLR,FEW,0.00,WeatherDisplay:10.37,2013-01-16 02:44:00,
2013-01-15 21:49:00,28.4,24.2,30.26,NW,305,0.0,0.0,84,0.00,CLR,FEW,0.00,WeatherDisplay:10.37,2013-01-16 02:49:00,
2013-01-15 21:54:00,28.3,24.1,30.26,NW,305,0.0,0.0,84,0.00,CLR,FEW,0.00,WeatherDisplay:10.37,2013-01-16 02:54:00,
2013-01-15 21:59:00,28.3,23.8,30.25,NW,305,0.0,0.0,83,0.00,CLR,FEW,0.00,WeatherDisplay:10.37,2013-01-16 02:59:00,
2013-01-15 22:04:00,28.3,23.8,30.25,NW,305,0.0,0.0,83,0.00,CLR,FEW,0.00,WeatherDisplay:10.37,2013-01-16 03:04:00,
2013-01-15 22:09:00,28.2,23.7,30.25,NW,305,0.0,0.0,83,0.00,CLR,FEW,0.00,WeatherDisplay:10.37,2013-01-16 03:09:00,
2013-01-15 22:14:00,28.2,24.0,30.25,NW,305,0.0,0.0,84,0.00,CLR,FEW,0.00,WeatherDisplay:10.37,2013-01-16 03:14:00,
2013-01-15 22:19:00,28.2,24.6,30.25,NW,305,0.0,0.0,86,0.00,CLR,FEW,0.00,WeatherDisplay:10.37,2013-01-16 03:19:00,
2013-01-15 22:24:00,28.1,24.2,30.25,NW,305,0.0,0.0,85,0.00,CLR,FEW,0.00,WeatherDisplay:10.37,2013-01-16 03:24:00,
2013-01-15 22:29:00,28.0,24.6,30.25,NW,305,1.2,0.0,87,0.00,CLR,FEW,0.00,WeatherDisplay:10.37,2013-01-16 03:29:00,
2013-01-15 22:34:00,27.9,24.3,30.25,NW,305,0.0,0.0,86,0.00,CLR,FEW,0.00,WeatherDisplay:10.37,2013-01-16 03:34:00,
2013-01-15 22:39:00,28.0,24.4,30.26,NW,305,0.0,0.0,86,0.00,CLR,FEW,0.00,WeatherDisplay:10.37,2013-01-16 03:39:00,
2013-01-15 22:44:00,28.0,24.4,30.26,NW,305,0.0,0.0,86,0.00,CLR,FEW,0.00,WeatherDisplay:10.37,2013-01-16 03:44:00,
2013-01-15 22:48:00,28.0,24.1,30.26,NW,305,0.0,0.0,85,0.00,CLR,FEW,0.00,WeatherDisplay:10.37,2013-01-16 03:48:00,
2013-01-15 22:53:00,28.1,24.2,30.26,NW,305,0.0,0.0,85,0.00,CLR,FEW,0.00,WeatherDisplay:10.37,2013-01-16 03:53:00,
2013-01-15 22:58:00,28.1,24.5,30.26,NW,305,0.0,0.0,86,0.00,CLR,FEW,0.00,WeatherDisplay:10.37,2013-01-16 03:58:00,
2013-01-15 23:03:00,28.1,24.2,30.26,NW,305,0.0,0.0,85,0.00,CLR,FEW,0.00,WeatherDisplay:10.37,2013-01-16 04:03:00,
2013-01-15 23:08:00,28.1,24.7,30.26,NW,305,0.0,0.0,87,0.00,CLR,FEW,0.00,WeatherDisplay:10.37,2013-01-16 04:08:00,
2013-01-15 23:13:00,28.1,25.0,30.26,NW,305,0.0,0.0,88,0.00,CLR,FEW,0.00,WeatherDisplay:10.37,2013-01-16 04:13:00,
2013-01-15 23:18:00,27.9,24.8,30.26,NW,305,0.0,0.0,88,0.00,CLR,FEW,0.00,WeatherDisplay:10.37,2013-01-16 04:18:00,
2013-01-15 23:23:00,27.9,24.8,30.25,NW,305,0.0,0.0,88,0.00,CLR,FEW,0.00,WeatherDisplay:10.37,2013-01-16 04:23:00,
2013-01-15 23:28:00,27.8,24.7,30.25,NW,305,0.0,0.0,88,0.00,CLR,FEW,0.00,WeatherDisplay:10.37,2013-01-16 04:28:00,
2013-01-15 23:34:00,27.7,24.6,30.25,NW,305,0.0,0.0,88,0.00,CLR,FEW,0.00,WeatherDisplay:10.37,2013-01-16 04:34:00,
2013-01-15 23:39:00,27.6,24.5,30.25,NW,305,0.0,0.0,88,0.00,CLR,FEW,0.00,WeatherDisplay:10.37,2013-01-16 04:39:00,
2013-01-15 23:44:00,27.6,24.5,30.25,NW,305,0.0,0.0,88,0.00,CLR,FEW,0.00,WeatherDisplay:10.37,2013-01-16 04:44:00,
2013-01-15 23:49:00,27.6,24.5,30.24,NW,305,0.0,0.0,88,0.00,CLR,FEW,0.00,WeatherDisplay:10.37,2013-01-16 04:49:00,
2013-01-15 23:54:00,27.6,24.5,30.24,NW,305,0.0,0.0,88,0.00,CLR,FEW,0.00,WeatherDisplay:10.37,2013-01-16 04:54:00,
2013-01-15 23:59:00,27.6,24.8,30.24,NW,305,0.0,0.0,89,0.00,CLR,FEW,0.00,WeatherDisplay:10.37,2013-01-16 04:59:00,